Terminal Aerodrome Forecast
Issued by NWS

Home | Current Version | Previous Version | Graphics & Text | Print | Product List | Glossary On
Versions: 1 2 3 4 5 6 7 8 9 10 11 12 13 14 15 16 17 18 19 20 21 22 23 24 25 26 27 28 29 30 31 32 33 34 35 36 37 38 39 40 41
000
FTUS43 KGRB 230743 AAB
TAFRHI
TAF AMD
KRHI 230743Z 2308/2406 12010KT 3SM -SN BR OVC007 WS020/18035KT
      TEMPO 2308/2310 1 1/2SM -FZRAPL BR
     FM231000 15004KT 1SM -FZDZSN BR OVC007 WS020/20030KT
     FM231400 21005KT 3SM -FZDZ BR OVC014
     FM231600 27008G16KT P6SM OVC015
     FM232200 29006KT P6SM BKN017
     FM240300 29003KT P6SM SCT020=

USA.gov is the U.S. government's official web portal to all federal, state and local government web resources and services.